Time;durP1;ratioP1;P1;durP2;ratioP2;P2;SDS_P1;SDS_P2;PMS_P1;PMS_P2;Temp;Humidity;BMP_temperature;BMP_pressure;BME280_temperature;BME280_humidity;BME280_pressure;Samples;Min_cycle;Max_cycle;Signal;HPM_P1;HPM_P2
2023/01/08 07:52:10;;;;;;;368.05;353.77;;;21.40;81.40;;;;;;5688464;23;20287;-75
2023/01/08 07:54:37;;;;;;;440.27;421.98;;;21.30;81.20;;;;;;4950265;28;20241;-73
2023/01/08 07:57:04;;;;;;;593.38;561.20;;;21.30;81.30;;;;;;4951824;28;20731;-75
2023/01/08 07:59:30;;;;;;;511.98;488.67;;;21.30;81.30;;;;;;4953491;28;20204;-75
2023/01/08 08:01:57;;;;;;;648.53;609.72;;;21.30;81.40;;;;;;4952897;28;20205;-76
2023/01/08 08:04:24;;;;;;;588.42;558.72;;;21.30;81.30;;;;;;4949286;28;20213;-77
2023/01/08 08:10:51;;;;;;;286.02;275.75;;;21.40;80.40;;;;;;4951307;28;20656;-74
2023/01/08 08:13:18;;;;;;;266.17;256.98;;;21.50;80.00;;;;;;4945372;28;20208;-75
2023/01/08 08:15:44;;;;;;;263.33;254.07;;;21.60;80.00;;;;;;4952322;28;20616;-75
2023/01/08 08:18:11;;;;;;;286.05;275.98;;;21.60;79.80;;;;;;4952432;29;20798;-76
2023/01/08 08:20:38;;;;;;;329.63;317.52;;;21.70;79.50;;;;;;4948533;28;20252;-76
2023/01/08 08:23:06;;;;;;;411.85;395.52;;;21.70;79.40;;;;;;4948088;28;20208;-76
2023/01/08 08:25:33;;;;;;;427.00;410.02;;;21.70;79.40;;;;;;4953040;28;20739;-74
2023/01/08 08:28:02;;;;;;;474.35;454.60;;;21.70;79.50;;;;;;4955338;28;20208;-75
2023/01/08 08:30:30;;;;;;;673.50;632.53;;;21.60;79.70;;;;;;4952031;29;20213;-75
2023/01/08 08:32:59;;;;;;;519.58;495.83;;;21.60;80.00;;;;;;4950192;28;20228;-75
2023/01/08 08:35:26;;;;;;;560.75;534.05;;;21.50;80.00;;;;;;4952003;28;20291;-75
2023/01/08 08:37:54;;;;;;;715.50;671.75;;;21.50;80.60;;;;;;4952917;28;20216;-72
2023/01/08 08:40:21;;;;;;;531.60;507.52;;;21.40;80.30;;;;;;4951312;28;20628;-76
2023/01/08 08:42:47;;;;;;;476.05;455.60;;;21.40;80.30;;;;;;4950859;28;20686;-73
2023/01/08 08:45:15;;;;;;;553.40;526.35;;;21.40;80.20;;;;;;4952491;29;20209;-75
2023/01/08 08:47:42;;;;;;;731.58;687.65;;;21.50;79.90;;;;;;4953343;29;20197;-73
2023/01/08 08:50:10;;;;;;;456.50;437.75;;;21.60;79.80;;;;;;4950456;28;20204;-74
2023/01/08 08:52:37;;;;;;;370.23;355.92;;;21.70;79.50;;;;;;4943591;28;20237;-74
2023/01/08 08:55:04;;;;;;;441.90;423.80;;;21.70;79.40;;;;;;4938368;29;20291;-74
2023/01/08 08:57:31;;;;;;;682.30;639.42;;;21.70;79.80;;;;;;4947942;29;20264;-72
2023/01/08 08:59:58;;;;;;;434.00;416.10;;;21.80;78.80;;;;;;4936627;29;20445;-75
2023/01/08 09:02:26;;;;;;;468.92;449.33;;;21.80;78.90;;;;;;4932085;29;20209;-74
2023/01/08 09:04:53;;;;;;;464.40;444.70;;;21.80;79.10;;;;;;4932506;29;20208;-75
2023/01/08 09:07:20;;;;;;;556.25;529.80;;;21.70;79.20;;;;;;4942014;29;20624;-73
2023/01/08 09:09:46;;;;;;;717.50;673.85;;;21.70;79.40;;;;;;4939084;29;20205;-76
2023/01/08 09:12:13;;;;;;;722.03;675.35;;;21.60;79.60;;;;;;4934712;29;20233;-73
2023/01/08 09:14:40;;;;;;;395.45;380.23;;;21.60;79.80;;;;;;4935894;29;20252;-73
2023/01/08 09:17:07;;;;;;;417.65;401.13;;;21.60;79.60;;;;;;4940312;29;20657;-76
2023/01/08 09:19:35;;;;;;;400.90;385.25;;;21.70;79.30;;;;;;4943516;29;20209;-75
2023/01/08 09:22:01;;;;;;;421.63;404.27;;;21.80;79.20;;;;;;4935781;29;20221;-75
2023/01/08 09:24:31;;;;;;;391.27;376.25;;;21.80;79.00;;;;;;4945578;29;20680;-75
2023/01/08 09:26:57;;;;;;;358.65;345.23;;;21.80;78.80;;;;;;4931121;29;20569;-75
2023/01/08 09:29:24;;;;;;;404.05;388.00;;;21.90;78.70;;;;;;4935096;29;20201;-75
2023/01/08 09:31:51;;;;;;;430.80;413.70;;;21.90;78.50;;;;;;4933384;29;20221;-75
2023/01/08 09:34:19;;;;;;;457.48;438.60;;;21.90;78.40;;;;;;4928837;29;20528;-74
2023/01/08 09:36:47;;;;;;;492.08;471.15;;;21.90;78.40;;;;;;4937385;29;20479;-75
2023/01/08 09:39:14;;;;;;;690.40;652.05;;;22.00;78.60;;;;;;4937909;29;20673;-76
2023/01/08 09:41:44;;;;;;;446.20;427.95;;;22.00;79.20;;;;;;4920673;29;20211;-75
2023/01/08 09:44:18;;;;;;;439.75;421.98;;;22.00;78.30;;;;;;4929100;29;20214;-74
2023/01/08 09:46:46;;;;;;;455.83;437.15;;;21.90;78.30;;;;;;4928372;29;20624;-75
2023/01/08 09:49:20;;;;;;;493.70;472.55;;;21.90;79.30;;;;;;4934470;29;20663;-74
2023/01/08 09:51:48;;;;;;;542.47;517.60;;;21.90;78.40;;;;;;4936910;29;20711;-75
2023/01/08 09:54:16;;;;;;;729.22;685.75;;;21.90;78.40;;;;;;4922137;29;20288;-75
2023/01/08 09:56:44;;;;;;;472.30;452.52;;;21.90;78.30;;;;;;4925412;29;20206;-74
2023/01/08 09:59:16;;;;;;;364.60;351.20;;;21.90;77.80;;;;;;4926906;29;20213;-74
2023/01/08 10:01:44;;;;;;;466.08;446.60;;;21.90;77.50;;;;;;4921902;29;20461;-74
2023/01/08 10:04:15;;;;;;;463.02;443.95;;;21.90;76.80;;;;;;4921520;29;20296;-74
2023/01/08 10:06:46;;;;;;;518.72;495.05;;;21.90;77.10;;;;;;4930766;29;20577;-76
2023/01/08 10:09:14;;;;;;;303.05;292.38;;;21.90;77.20;;;;;;4924968;29;20209;-78
2023/01/08 10:11:44;;;;;;;237.53;229.53;;;21.90;77.20;;;;;;4924224;29;20228;-75
2023/01/08 10:14:20;;;;;;;217.60;210.45;;;21.90;77.20;;;;;;4926971;29;20949;-74
2023/01/08 10:16:50;;;;;;;242.67;234.47;;;21.90;77.60;;;;;;4932004;29;20264;-74
2023/01/08 10:19:17;;;;;;;235.30;227.45;;;21.80;77.90;;;;;;4928806;29;20468;-75
2023/01/08 10:21:43;;;;;;;256.88;248.40;;;21.80;78.00;;;;;;4922888;29;20202;-74
2023/01/08 10:24:10;;;;;;;281.15;271.35;;;21.70;78.10;;;;;;4924568;29;20237;-76
2023/01/08 10:26:38;;;;;;;668.95;633.50;;;21.70;78.20;;;;;;4926009;29;20225;-75
2023/01/08 10:29:23;;;;;;;312.40;301.15;;;21.70;78.20;;;;;;4934308;29;20280;-76
2023/01/08 10:31:52;;;;;;;405.15;389.45;;;21.80;78.10;;;;;;4930407;29;20605;-77
2023/01/08 10:34:26;;;;;;;481.63;461.00;;;21.90;77.80;;;;;;4927710;29;20206;-76
2023/01/08 10:36:54;;;;;;;691.38;651.40;;;22.00;77.60;;;;;;4931497;29;20204;-75
2023/01/08 10:39:24;;;;;;;484.00;463.27;;;22.10;77.30;;;;;;4928928;29;20603;-77
2023/01/08 10:41:53;;;;;;;486.80;465.85;;;22.10;76.90;;;;;;4932540;29;20206;-75
2023/01/08 10:44:23;;;;;;;555.25;529.78;;;22.20;76.80;;;;;;4928579;29;20210;-75
2023/01/08 10:46:53;;;;;;;746.53;703.85;;;22.20;76.70;;;;;;4931605;29;20277;-76
2023/01/08 10:49:27;;;;;;;473.40;453.42;;;22.20;76.40;;;;;;4927807;29;20266;-75
2023/01/08 10:51:57;;;;;;;518.30;495.40;;;22.20;76.20;;;;;;4931842;29;20719;-76
2023/01/08 10:54:38;;;;;;;547.38;522.22;;;22.30;76.20;;;;;;4933921;29;20470;-75
2023/01/08 10:57:22;;;;;;;636.67;601.60;;;22.30;76.20;;;;;;4932653;29;20268;-75
2023/01/08 10:59:48;;;;;;;446.00;427.92;;;22.20;76.10;;;;;;4924786;29;20614;-76
2023/01/08 11:02:21;;;;;;;455.10;436.83;;;22.30;76.20;;;;;;4933052;29;20252;-75
2023/01/08 11:04:51;;;;;;;500.48;478.95;;;22.30;76.10;;;;;;4931735;29;20573;-74
2023/01/08 11:07:21;;;;;;;548.05;523.03;;;22.30;76.00;;;;;;4930073;29;20257;-75
2023/01/08 11:09:50;;;;;;;480.03;459.93;;;22.30;76.00;;;;;;4931875;29;20692;-76
2023/01/08 11:12:31;;;;;;;513.33;490.58;;;22.30;76.00;;;;;;4933086;29;20931;-74
2023/01/08 11:14:59;;;;;;;464.90;445.95;;;22.30;76.00;;;;;;4932058;29;20252;-76
2023/01/08 11:17:26;;;;;;;650.88;616.30;;;22.30;76.00;;;;;;4932067;29;20209;-75
2023/01/08 11:19:53;;;;;;;414.77;398.42;;;22.30;76.20;;;;;;4927633;29;20724;-75
2023/01/08 11:22:22;;;;;;;581.05;553.00;;;22.30;76.20;;;;;;4927870;29;20197;-75
2023/01/08 11:24:50;;;;;;;482.63;461.40;;;22.30;76.30;;;;;;4929692;29;20202;-75
2023/01/08 11:27:22;;;;;;;376.63;362.58;;;22.20;76.20;;;;;;4932316;29;20925;-74
2023/01/08 11:29:57;;;;;;;373.57;359.73;;;22.30;76.30;;;;;;4934748;29;20661;-75
2023/01/08 11:32:45;;;;;;;403.02;387.67;;;22.30;76.20;;;;;;4929564;29;21015;-76
2023/01/08 11:35:17;;;;;;;426.53;409.67;;;22.30;76.20;;;;;;4927975;29;20206;-75
2023/01/08 11:37:49;;;;;;;330.23;318.30;;;22.30;76.20;;;;;;4928314;29;20490;-75
2023/01/08 11:40:21;;;;;;;428.33;411.42;;;22.20;76.00;;;;;;4931042;29;20966;-77
2023/01/08 11:43:02;;;;;;;456.05;437.73;;;22.30;76.10;;;;;;4930529;29;20201;-76
2023/01/08 11:45:43;;;;;;;462.00;443.23;;;22.30;76.00;;;;;;4930277;29;20276;-73
2023/01/08 11:48:27;;;;;;;480.17;459.83;;;22.30;76.00;;;;;;4942329;29;20610;-75
2023/01/08 11:51:10;;;;;;;567.03;540.40;;;22.30;76.00;;;;;;4939563;29;20209;-75
2023/01/08 11:53:42;;;;;;;603.55;574.10;;;22.30;75.80;;;;;;4927877;29;20978;-75
2023/01/08 11:56:20;;;;;;;643.63;610.75;;;22.30;75.80;;;;;;4932828;29;20375;-74
2023/01/08 11:59:03;;;;;;;533.90;509.35;;;22.30;75.80;;;;;;4947393;29;20283;-76
2023/01/08 12:01:43;;;;;;;339.87;327.60;;;22.30;75.80;;;;;;4925571;29;20200;-76
2023/01/08 12:04:36;;;;;;;338.40;325.93;;;22.30;75.70;;;;;;4933771;29;21344;-76
2023/01/08 12:07:14;;;;;;;302.27;291.57;;;22.40;75.80;;;;;;4931009;29;20469;-76
2023/01/08 12:09:44;;;;;;;296.38;286.10;;;22.40;75.90;;;;;;4933928;29;20953;-75
2023/01/08 12:12:23;;;;;;;329.08;317.45;;;22.30;75.90;;;;;;4930498;29;20228;-75
2023/01/08 12:15:01;;;;;;;311.37;300.47;;;22.30;76.30;;;;;;4933514;29;20205;-76
2023/01/08 12:17:59;;;;;;;382.63;368.30;;;22.20;76.50;;;;;;4932315;29;20911;-76
2023/01/08 12:20:33;;;;;;;398.17;382.42;;;22.00;77.80;;;;;;4924067;29;20469;-77
2023/01/08 12:23:15;;;;;;;494.58;473.02;;;21.90;78.20;;;;;;4933528;29;20653;-78
2023/01/08 12:25:55;;;;;;;376.30;362.40;;;21.80;78.50;;;;;;4936092;29;20341;-81
2023/01/08 12:28:34;;;;;;;668.13;630.05;;;21.70;80.10;;;;;;4937174;29;20214;-81
2023/01/08 12:31:17;;;;;;;500.20;477.92;;;21.70;80.10;;;;;;4931235;29;20231;-82
2023/01/08 12:33:51;;;;;;;444.25;424.40;;;21.80;80.20;;;;;;4930199;29;20217;-81
2023/01/08 12:36:23;;;;;;;309.27;297.92;;;21.80;80.20;;;;;;4933673;29;20212;-82
2023/01/08 12:38:55;;;;;;;312.40;301.23;;;21.90;80.10;;;;;;4934996;29;20205;-82
2023/01/08 12:41:24;;;;;;;312.45;301.40;;;22.00;80.10;;;;;;4934765;29;20470;-85
2023/01/08 12:43:55;;;;;;;394.23;379.25;;;22.40;79.70;;;;;;4935497;29;20211;-83
2023/01/08 12:46:24;;;;;;;443.57;425.17;;;22.70;78.80;;;;;;4938113;29;20779;-84
2023/01/08 12:48:55;;;;;;;495.92;474.20;;;23.00;78.20;;;;;;4934717;29;20828;-86
2023/01/08 12:51:31;;;;;;;526.00;502.40;;;23.20;78.00;;;;;;4936625;29;20203;-84
2023/01/08 12:54:06;;;;;;;540.17;515.20;;;23.30;77.80;;;;;;4946622;29;20205;-81
2023/01/08 12:56:41;;;;;;;635.67;602.97;;;23.30;77.60;;;;;;4934106;29;20459;-82
2023/01/08 12:59:21;;;;;;;729.70;689.30;;;23.40;77.50;;;;;;4937691;29;20465;-81
2023/01/08 13:01:54;;;;;;;454.33;434.30;;;23.40;77.60;;;;;;4940334;29;20953;-81
2023/01/08 13:04:23;;;;;;;389.33;374.70;;;23.50;77.40;;;;;;4942259;29;20213;-81
2023/01/08 13:06:51;;;;;;;373.77;359.77;;;23.50;77.50;;;;;;4938664;29;20472;-86
2023/01/08 13:09:23;;;;;;;381.30;366.83;;;23.50;77.40;;;;;;4939840;29;20464;-84
2023/01/08 13:11:52;;;;;;;407.33;391.10;;;23.60;77.60;;;;;;4922337;29;20465;-83
2023/01/08 13:14:20;;;;;;;381.90;367.57;;;23.60;77.50;;;;;;4934370;29;20465;-84
2023/01/08 13:16:59;;;;;;;386.77;372.27;;;23.60;77.50;;;;;;4935955;29;20980;-84
2023/01/08 13:19:31;;;;;;;263.37;254.57;;;23.70;77.30;;;;;;4935431;29;20535;-82
2023/01/08 13:21:59;;;;;;;233.03;225.23;;;23.70;77.40;;;;;;4930249;29;20468;-81
2023/01/08 13:24:31;;;;;;;278.03;268.57;;;23.60;77.40;;;;;;4932759;29;20461;-80
2023/01/08 13:27:11;;;;;;;254.77;246.13;;;23.60;77.70;;;;;;4927518;29;20497;-80
2023/01/08 13:29:40;;;;;;;257.93;249.23;;;23.60;77.70;;;;;;4926590;29;20472;-80
2023/01/08 13:32:25;;;;;;;227.90;220.37;;;23.60;77.70;;;;;;4928797;29;20484;-80
2023/01/08 13:35:17;;;;;;;254.83;246.20;;;23.60;77.80;;;;;;4927644;29;20992;-82
2023/01/08 13:37:45;;;;;;;250.03;241.63;;;23.60;77.70;;;;;;4923699;29;20463;-82
2023/01/08 13:40:36;;;;;;;319.93;308.53;;;23.60;77.70;;;;;;4920928;29;21148;-81
2023/01/08 13:43:06;;;;;;;355.27;342.27;;;23.60;77.90;;;;;;4930550;29;20464;-85
2023/01/08 13:45:33;;;;;;;436.53;419.10;;;23.60;77.80;;;;;;4937750;29;20548;-84
2023/01/08 13:48:00;;;;;;;451.80;433.53;;;23.60;77.80;;;;;;4932853;29;20454;-80
2023/01/08 13:50:29;;;;;;;486.73;466.17;;;23.60;77.90;;;;;;4935148;29;20512;-84
2023/01/08 13:52:58;;;;;;;474.73;454.80;;;23.60;77.70;;;;;;4936772;29;20499;-82
2023/01/08 13:55:30;;;;;;;483.20;463.27;;;23.60;77.70;;;;;;4936812;29;20466;-82
2023/01/08 13:58:00;;;;;;;502.00;480.67;;;23.60;77.60;;;;;;4936181;29;20491;-80
2023/01/08 14:00:34;;;;;;;505.83;483.53;;;23.60;77.70;;;;;;4936023;28;20465;-83
2023/01/08 14:03:01;;;;;;;502.20;480.23;;;23.60;77.60;;;;;;4930532;29;20458;-80
2023/01/08 14:05:33;;;;;;;494.80;473.53;;;23.60;77.50;;;;;;4938589;29;20983;-79
2023/01/08 14:08:00;;;;;;;456.00;436.93;;;23.60;77.40;;;;;;4943863;29;20463;-82
2023/01/08 14:10:28;;;;;;;486.23;465.80;;;23.60;77.40;;;;;;4932176;29;20473;-84
2023/01/08 14:13:04;;;;;;;476.33;456.53;;;23.60;77.50;;;;;;4924455;29;20486;-83
2023/01/08 14:15:35;;;;;;;489.60;468.80;;;23.60;77.50;;;;;;4930022;29;20476;-81
2023/01/08 14:18:03;;;;;;;553.93;528.77;;;23.70;77.30;;;;;;4932519;29;20475;-85
2023/01/08 14:20:33;;;;;;;568.50;542.00;;;23.80;77.00;;;;;;4931662;29;20460;-78
2023/01/08 14:23:02;;;;;;;573.50;546.37;;;23.80;76.70;;;;;;4925206;29;20473;-86
2023/01/08 14:25:29;;;;;;;572.87;545.83;;;23.90;76.40;;;;;;4932405;29;20468;-86
2023/01/08 14:28:01;;;;;;;600.70;571.70;;;23.90;76.30;;;;;;4933524;29;20454;-85
2023/01/08 14:30:29;;;;;;;623.07;592.37;;;23.90;76.10;;;;;;4933642;29;20509;-80
2023/01/08 14:32:57;;;;;;;642.80;609.80;;;24.00;76.80;;;;;;4925927;29;20492;-80
2023/01/08 14:35:31;;;;;;;574.27;546.87;;;24.00;75.90;;;;;;4925666;29;20481;-79
2023/01/08 14:38:00;;;;;;;554.57;528.77;;;24.10;75.40;;;;;;4926124;29;20588;-78
2023/01/08 14:40:33;;;;;;;748.53;704.83;;;24.10;75.90;;;;;;4925676;29;20481;-82
2023/01/08 14:43:08;;;;;;;760.72;713.47;;;24.10;74.80;;;;;;4928587;29;20462;-80
2023/01/08 14:45:36;;;;;;;708.88;667.67;;;24.00;74.90;;;;;;4926230;29;20588;-80
2023/01/08 14:48:12;;;;;;;642.80;609.28;;;23.90;75.00;;;;;;4931380;29;20214;-79
2023/01/08 14:50:42;;;;;;;706.93;666.30;;;23.80;75.10;;;;;;4931467;29;20206;-76
2023/01/08 14:53:17;;;;;;;644.72;610.75;;;23.80;75.20;;;;;;4930282;29;20496;-78
2023/01/08 14:55:47;;;;;;;625.00;594.13;;;23.70;75.10;;;;;;4929471;29;20253;-80
2023/01/08 14:58:16;;;;;;;615.35;585.53;;;23.70;75.20;;;;;;4930438;29;20462;-79
2023/01/08 15:00:51;;;;;;;580.47;551.33;;;23.60;75.10;;;;;;4929093;29;20254;-76
2023/01/08 15:03:30;;;;;;;539.78;513.92;;;23.60;75.10;;;;;;4925174;29;20828;-76
2023/01/08 15:05:57;;;;;;;678.78;642.85;;;23.60;75.30;;;;;;4925276;29;20224;-78
2023/01/08 15:08:32;;;;;;;548.33;521.90;;;23.60;75.20;;;;;;4928509;29;20212;-78
2023/01/08 15:11:00;;;;;;;458.90;439.47;;;23.60;75.00;;;;;;4925091;29;20465;-79
2023/01/08 15:13:32;;;;;;;478.30;457.17;;;23.70;75.00;;;;;;4929633;29;20521;-80
2023/01/08 15:16:02;;;;;;;401.37;386.03;;;23.70;74.70;;;;;;4930837;29;21024;-79
2023/01/08 15:18:29;;;;;;;412.13;396.42;;;23.80;74.60;;;;;;4929398;29;20959;-79
2023/01/08 15:20:56;;;;;;;509.73;487.52;;;23.90;74.40;;;;;;4931390;29;20203;-79
2023/01/08 15:23:37;;;;;;;620.85;590.15;;;23.90;74.10;;;;;;4924447;29;20201;-78
2023/01/08 15:26:04;;;;;;;487.93;466.87;;;24.00;74.00;;;;;;4927236;29;20216;-77
2023/01/08 15:28:33;;;;;;;464.70;445.67;;;24.10;73.70;;;;;;4923513;29;20466;-79
2023/01/08 15:30:59;;;;;;;511.77;489.20;;;24.10;73.50;;;;;;4926146;29;20477;-78
2023/01/08 15:33:27;;;;;;;503.27;481.23;;;24.10;73.40;;;;;;4923007;29;20932;-79
2023/01/08 15:35:56;;;;;;;527.55;504.40;;;24.10;73.20;;;;;;4930748;29;20952;-76
2023/01/08 15:38:23;;;;;;;537.07;512.23;;;24.00;73.10;;;;;;4927605;29;20682;-78
2023/01/08 15:40:55;;;;;;;580.00;552.60;;;24.00;73.30;;;;;;4926422;29;20488;-82
2023/01/08 15:43:21;;;;;;;742.42;700.00;;;24.00;73.10;;;;;;4935989;29;20460;-76
2023/01/08 15:45:52;;;;;;;585.40;556.90;;;23.90;73.90;;;;;;4939616;29;20205;-79
2023/01/08 15:48:18;;;;;;;446.90;428.90;;;23.90;73.60;;;;;;4930494;29;20457;-78
2023/01/08 15:50:45;;;;;;;483.23;463.07;;;23.90;73.50;;;;;;4927040;29;20968;-78
2023/01/08 15:53:17;;;;;;;676.03;639.22;;;23.90;73.60;;;;;;4917759;29;20589;-78
2023/01/08 15:55:45;;;;;;;631.17;597.73;;;23.90;73.60;;;;;;4924240;29;20209;-80
2023/01/08 15:58:16;;;;;;;381.23;367.00;;;23.80;73.70;;;;;;4928191;29;20494;-83
2023/01/08 16:00:45;;;;;;;417.47;401.47;;;23.70;73.90;;;;;;4935398;29;20489;-82
2023/01/08 16:03:13;;;;;;;387.63;372.97;;;23.80;74.20;;;;;;4933643;29;20470;-81
2023/01/08 16:05:40;;;;;;;673.97;637.87;;;23.90;74.00;;;;;;4939127;29;20458;-83
2023/01/08 16:08:07;;;;;;;696.43;656.17;;;23.90;73.70;;;;;;4937500;29;20469;-84
2023/01/08 16:10:34;;;;;;;632.17;599.23;;;23.90;73.60;;;;;;4931404;29;20465;-81
2023/01/08 16:13:01;;;;;;;662.63;628.20;;;24.00;73.70;;;;;;4929638;29;20869;-82
2023/01/08 16:15:29;;;;;;;658.90;624.17;;;24.00;73.90;;;;;;4928189;29;20468;-80
2023/01/08 16:17:56;;;;;;;722.78;681.63;;;24.00;73.80;;;;;;4933933;29;20559;-78
2023/01/08 16:20:23;;;;;;;252.10;243.67;;;24.00;74.00;;;;;;4937557;29;20688;-81
2023/01/08 16:22:50;;;;;;;286.20;276.40;;;24.00;74.00;;;;;;4933689;29;20459;-81
2023/01/08 16:25:17;;;;;;;728.17;687.60;;;24.00;73.90;;;;;;4936816;29;20474;-81
2023/01/08 16:27:43;;;;;;;331.97;320.07;;;24.10;74.00;;;;;;4938573;29;20458;-81
2023/01/08 16:30:13;;;;;;;467.30;448.20;;;24.00;74.00;;;;;;4932161;29;20491;-79
2023/01/08 16:32:41;;;;;;;555.30;527.97;;;24.10;74.00;;;;;;4934850;29;20559;-79
2023/01/08 16:35:09;;;;;;;430.53;413.53;;;24.20;74.00;;;;;;4931240;29;20941;-79
2023/01/08 16:37:36;;;;;;;408.27;392.47;;;24.10;73.90;;;;;;4931903;29;20495;-80
2023/01/08 16:40:03;;;;;;;415.23;398.90;;;24.10;74.00;;;;;;4926628;29;20488;-84
2023/01/08 16:42:30;;;;;;;444.87;426.97;;;23.90;75.10;;;;;;4936392;29;20451;-83
2023/01/08 16:44:58;;;;;;;449.90;431.83;;;23.80;75.60;;;;;;4929372;29;20560;-83
2023/01/08 16:47:25;;;;;;;545.07;520.20;;;23.80;75.20;;;;;;4933548;29;20862;-83
2023/01/08 16:49:53;;;;;;;600.93;571.83;;;23.90;75.00;;;;;;4933167;29;20470;-83
2023/01/08 16:52:19;;;;;;;338.03;325.87;;;23.90;75.10;;;;;;4940770;29;20493;-84
2023/01/08 16:54:47;;;;;;;647.50;613.50;;;24.00;75.20;;;;;;4947291;29;21001;-83
2023/01/08 16:57:14;;;;;;;294.80;284.43;;;24.00;75.30;;;;;;4932120;29;20473;-81
2023/01/08 16:59:41;;;;;;;291.00;280.77;;;24.00;75.30;;;;;;4936482;29;20474;-79
2023/01/08 17:02:09;;;;;;;301.07;290.33;;;23.90;75.40;;;;;;4934432;29;20462;-86
2023/01/08 17:04:36;;;;;;;339.57;327.27;;;23.80;75.40;;;;;;4935161;29;20961;-82
2023/01/08 17:07:05;;;;;;;656.70;623.30;;;23.80;75.30;;;;;;4931307;29;20882;-83
2023/01/08 17:09:32;;;;;;;574.30;547.87;;;23.80;75.40;;;;;;4940253;29;20483;-80
2023/01/08 17:11:59;;;;;;;324.13;312.33;;;23.90;75.30;;;;;;4936815;29;20455;-80
2023/01/08 17:14:25;;;;;;;332.57;319.73;;;23.90;75.40;;;;;;4938881;29;20488;-79
2023/01/08 17:16:52;;;;;;;295.30;285.07;;;23.90;75.30;;;;;;4930870;29;20459;-82
2023/01/08 17:19:19;;;;;;;315.40;304.07;;;23.90;75.10;;;;;;4937559;29;20544;-83
2023/01/08 17:21:46;;;;;;;302.87;292.33;;;23.90;75.20;;;;;;4932381;29;20564;-84
2023/01/08 17:24:15;;;;;;;323.67;312.17;;;23.90;75.40;;;;;;4923661;29;20464;-88
2023/01/08 17:26:41;;;;;;;315.33;304.23;;;23.90;75.30;;;;;;4927813;29;20208;-83
2023/01/08 17:29:08;;;;;;;390.47;375.40;;;23.90;75.10;;;;;;4934919;29;20472;-82
2023/01/08 17:31:38;;;;;;;436.73;419.23;;;24.10;74.70;;;;;;4936118;29;20456;-84
2023/01/08 17:34:07;;;;;;;685.65;648.63;;;24.30;74.30;;;;;;4934359;29;20484;-80
2023/01/08 17:36:35;;;;;;;365.03;351.13;;;24.40;73.80;;;;;;4922673;29;20287;-80
2023/01/08 17:39:02;;;;;;;363.07;349.57;;;24.50;72.90;;;;;;4933197;29;20475;-79
2023/01/08 17:44:14;;;;;;;441.67;423.13;;;24.60;72.60;;;;;;4934329;29;20834;-80
2023/01/08 17:46:44;;;;;;;423.25;406.63;;;24.70;72.50;;;;;;4932248;29;20465;-77
2023/01/08 17:49:11;;;;;;;366.40;352.57;;;24.70;72.30;;;;;;4928309;29;20213;-79
2023/01/08 17:51:39;;;;;;;366.40;352.75;;;24.60;72.20;;;;;;4922842;29;20489;-78
2023/01/08 17:54:06;;;;;;;367.77;354.17;;;24.60;72.10;;;;;;4928772;29;20228;-79
2023/01/08 17:56:37;;;;;;;348.97;336.13;;;24.60;71.90;;;;;;4928360;29;20470;-77
2023/01/08 17:59:04;;;;;;;391.67;376.63;;;24.60;72.00;;;;;;4925021;29;20524;-77
2023/01/08 18:01:33;;;;;;;503.65;481.73;;;24.70;71.40;;;;;;4921432;29;20467;-77
2023/01/08 18:04:00;;;;;;;479.30;457.88;;;24.60;71.40;;;;;;4929811;29;20202;-78
2023/01/08 18:06:27;;;;;;;354.60;341.57;;;24.60;71.50;;;;;;4921028;29;20596;-79
2023/01/08 18:08:54;;;;;;;347.13;334.53;;;24.60;71.50;;;;;;4926856;29;20923;-77
2023/01/08 18:11:21;;;;;;;313.90;302.75;;;24.60;71.50;;;;;;4926138;29;20473;-76
2023/01/08 18:13:49;;;;;;;280.57;270.93;;;24.60;71.50;;;;;;4929703;29;20242;-76
2023/01/08 18:16:16;;;;;;;340.67;328.37;;;24.60;71.40;;;;;;4925299;29;20479;-76
2023/01/08 18:18:42;;;;;;;622.77;591.70;;;24.60;71.40;;;;;;4928050;29;20460;-76
2023/01/08 18:21:10;;;;;;;745.67;701.25;;;24.60;71.50;;;;;;4926446;29;20885;-78
2023/01/08 18:23:36;;;;;;;352.10;338.97;;;24.60;71.50;;;;;;4923064;29;20610;-75
2023/01/08 18:26:05;;;;;;;370.20;356.10;;;24.60;71.30;;;;;;4930722;29;20460;-76
2023/01/08 18:28:32;;;;;;;331.73;319.70;;;24.60;71.20;;;;;;4928615;29;20458;-75
2023/01/08 18:31:01;;;;;;;331.63;319.70;;;24.60;71.40;;;;;;4921742;29;20468;-79
2023/01/08 18:33:28;;;;;;;395.70;380.70;;;24.60;71.30;;;;;;4923476;29;20482;-79
2023/01/08 18:35:54;;;;;;;366.63;353.10;;;24.50;71.20;;;;;;4927572;29;20472;-76
2023/01/08 18:38:22;;;;;;;375.43;361.33;;;24.50;71.20;;;;;;4921058;29;20980;-76
2023/01/08 18:40:49;;;;;;;390.60;375.77;;;24.60;71.40;;;;;;4923769;29;20497;-75
2023/01/08 18:43:15;;;;;;;465.73;446.80;;;24.50;71.30;;;;;;4925422;29;20912;-76
2023/01/08 18:45:42;;;;;;;536.67;510.47;;;24.50;71.20;;;;;;4929451;29;20933;-79
2023/01/08 18:48:10;;;;;;;490.70;469.80;;;24.50;71.20;;;;;;4930752;29;20456;-79
2023/01/08 18:50:39;;;;;;;619.72;588.55;;;24.50;71.20;;;;;;4930034;29;20472;-80
2023/01/08 18:53:06;;;;;;;694.78;654.83;;;24.50;71.20;;;;;;4924276;29;20243;-80
2023/01/08 18:55:32;;;;;;;582.60;554.83;;;24.50;71.20;;;;;;4928484;29;20206;-80
2023/01/08 18:57:59;;;;;;;330.57;318.53;;;24.60;71.00;;;;;;4929202;29;20469;-79
2023/01/08 19:00:26;;;;;;;378.07;363.97;;;24.60;71.00;;;;;;4929775;29;20985;-80
2023/01/08 19:02:54;;;;;;;675.53;638.75;;;24.60;70.80;;;;;;4931363;29;20467;-82
2023/01/08 19:05:22;;;;;;;678.70;641.95;;;24.60;70.90;;;;;;4936309;29;20214;-79
2023/01/08 19:07:49;;;;;;;387.17;372.47;;;24.60;70.90;;;;;;4933818;29;20238;-78
2023/01/08 19:10:17;;;;;;;429.67;412.17;;;24.60;70.80;;;;;;4925373;29;20469;-80
2023/01/08 19:12:43;;;;;;;495.63;474.27;;;24.60;70.60;;;;;;4930278;29;20454;-80
2023/01/08 19:15:11;;;;;;;682.08;646.42;;;24.60;70.70;;;;;;4933940;29;20489;-78
2023/01/08 19:17:37;;;;;;;674.40;637.88;;;24.70;70.50;;;;;;4929271;29;20298;-80
2023/01/08 19:20:05;;;;;;;336.10;324.00;;;24.70;70.50;;;;;;4935444;29;20541;-80
2023/01/08 19:22:33;;;;;;;735.07;693.47;;;24.70;70.60;;;;;;4935476;29;20470;-78
2023/01/08 19:25:00;;;;;;;439.57;421.17;;;24.70;70.40;;;;;;4940566;29;20470;-78
2023/01/08 19:27:27;;;;;;;320.80;308.67;;;24.70;71.20;;;;;;4926489;29;20468;-81
2023/01/08 19:29:54;;;;;;;320.47;309.07;;;24.70;70.40;;;;;;4930692;29;20472;-77
2023/01/08 19:32:20;;;;;;;425.97;409.03;;;24.70;70.40;;;;;;4931680;29;20820;-77
2023/01/08 19:34:47;;;;;;;445.03;427.40;;;24.60;70.30;;;;;;4934551;29;20550;-78
2023/01/08 19:37:14;;;;;;;506.10;484.20;;;24.70;70.40;;;;;;4933495;29;20466;-79
2023/01/08 19:39:42;;;;;;;622.93;592.57;;;24.60;70.30;;;;;;4927118;29;20491;-80
2023/01/08 19:44:54;;;;;;;250.30;241.70;;;24.70;70.30;;;;;;4928454;29;20670;-79
2023/01/08 19:47:21;;;;;;;377.33;362.80;;;24.70;70.20;;;;;;4926052;29;20542;-79
2023/01/08 19:49:48;;;;;;;420.53;404.13;;;24.70;70.20;;;;;;4927992;29;20469;-80
2023/01/08 19:52:15;;;;;;;500.83;478.37;;;24.70;70.40;;;;;;4928107;29;21072;-81
2023/01/08 19:54:43;;;;;;;705.45;665.67;;;24.60;70.30;;;;;;4930807;29;20488;-77
2023/01/08 19:57:10;;;;;;;753.10;707.15;;;24.70;70.30;;;;;;4928780;29;20217;-77
2023/01/08 19:59:37;;;;;;;326.10;314.63;;;24.70;70.30;;;;;;4929989;28;20209;-80
2023/01/08 20:02:04;;;;;;;365.33;351.83;;;24.60;70.20;;;;;;4926557;29;20472;-79
2023/01/08 20:04:30;;;;;;;293.30;282.90;;;24.60;70.20;;;;;;4925984;29;20524;-80
2023/01/08 20:06:58;;;;;;;268.53;259.33;;;24.60;70.20;;;;;;4919163;29;20474;-80
2023/01/08 20:09:25;;;;;;;258.25;249.50;;;24.60;70.30;;;;;;4926280;29;20464;-81
2023/01/08 20:11:53;;;;;;;314.30;302.97;;;24.60;70.30;;;;;;4924043;29;20203;-81
2023/01/08 20:14:19;;;;;;;351.03;338.33;;;24.60;70.30;;;;;;4933040;29;22223;-80
2023/01/08 20:16:46;;;;;;;430.60;413.37;;;24.60;70.20;;;;;;4930230;29;20466;-78
2023/01/08 20:19:13;;;;;;;709.77;668.97;;;24.70;70.30;;;;;;4930860;29;20866;-77
2023/01/08 20:21:40;;;;;;;326.63;314.83;;;24.70;70.20;;;;;;4932430;29;20460;-77